sensor_id;sensor_type;location;lat;lon;timestamp;pressure;altitude;pressure_sealevel;temperature;humidity
13705;BME280;6924;52.122;9.952;2024-03-02T00:00:35;99376.56;;;8.53;100.00
13705;BME280;6924;52.122;9.952;2024-03-02T00:03:02;99378.06;;;8.59;99.93
13705;BME280;6924;52.122;9.952;2024-03-02T00:05:29;99378.88;;;8.68;99.51
13705;BME280;6924;52.122;9.952;2024-03-02T00:07:57;99373.75;;;8.61;99.71
13705;BME280;6924;52.122;9.952;2024-03-02T00:10:31;99374.06;;;8.68;99.51
13705;BME280;6924;52.122;9.952;2024-03-02T00:13:02;99379.88;;;8.63;99.46
13705;BME280;6924;52.122;9.952;2024-03-02T00:15:41;99373.94;;;8.65;99.00
13705;BME280;6924;52.122;9.952;2024-03-02T00:18:10;99374.25;;;8.55;100.00
13705;BME280;6924;52.122;9.952;2024-03-02T00:20:37;99378.88;;;8.51;100.00
13705;BME280;6924;52.122;9.952;2024-03-02T00:23:05;99376.75;;;8.56;100.00
13705;BME280;6924;52.122;9.952;2024-03-02T00:25:43;99377.75;;;8.60;100.00
13705;BME280;6924;52.122;9.952;2024-03-02T00:28:14;99371.09;;;8.65;99.83
13705;BME280;6924;52.122;9.952;2024-03-02T00:30:54;99364.97;;;8.72;98.86
13705;BME280;6924;52.122;9.952;2024-03-02T00:33:21;99358.34;;;8.76;98.64
13705;BME280;6924;52.122;9.952;2024-03-02T00:35:49;99360.66;;;8.74;99.33
13705;BME280;6924;52.122;9.952;2024-03-02T00:38:16;99367.63;;;8.68;99.05
13705;BME280;6924;52.122;9.952;2024-03-02T00:40:44;99362.78;;;8.68;98.87
13705;BME280;6924;52.122;9.952;2024-03-02T00:43:27;99368.44;;;8.68;99.65
13705;BME280;6924;52.122;9.952;2024-03-02T00:46:02;99365.63;;;8.68;98.84
13705;BME280;6924;52.122;9.952;2024-03-02T00:48:29;99369.09;;;8.65;99.21
13705;BME280;6924;52.122;9.952;2024-03-02T00:50:56;99372.94;;;8.69;99.39
13705;BME280;6924;52.122;9.952;2024-03-02T00:53:26;99365.63;;;8.68;98.68
13705;BME280;6924;52.122;9.952;2024-03-02T00:55:54;99376.25;;;8.63;98.84
13705;BME280;6924;52.122;9.952;2024-03-02T00:58:20;99380.56;;;8.60;98.71
13705;BME280;6924;52.122;9.952;2024-03-02T01:00:46;99381.06;;;8.62;99.56
13705;BME280;6924;52.122;9.952;2024-03-02T01:03:13;99371.75;;;8.62;99.60
13705;BME280;6924;52.122;9.952;2024-03-02T01:05:41;99379.56;;;8.56;99.77
13705;BME280;6924;52.122;9.952;2024-03-02T01:08:07;99386.00;;;8.57;99.68
13705;BME280;6924;52.122;9.952;2024-03-02T01:10:33;99378.25;;;8.62;99.01
13705;BME280;6924;52.122;9.952;2024-03-02T01:13:01;99387.19;;;8.64;99.26
13705;BME280;6924;52.122;9.952;2024-03-02T01:15:28;99382.19;;;8.61;99.21
13705;BME280;6924;52.122;9.952;2024-03-02T01:17:54;99385.84;;;8.62;99.69
13705;BME280;6924;52.122;9.952;2024-03-02T01:20:20;99390.34;;;8.63;99.18
13705;BME280;6924;52.122;9.952;2024-03-02T01:22:47;99391.97;;;8.64;99.51
13705;BME280;6924;52.122;9.952;2024-03-02T01:25:14;99385.38;;;8.51;100.00
13705;BME280;6924;52.122;9.952;2024-03-02T01:27:40;99390.00;;;8.47;100.00
13705;BME280;6924;52.122;9.952;2024-03-02T01:30:09;99390.63;;;8.44;100.00
13705;BME280;6924;52.122;9.952;2024-03-02T01:32:37;99384.13;;;8.35;100.00
13705;BME280;6924;52.122;9.952;2024-03-02T01:35:03;99389.81;;;8.43;100.00
13705;BME280;6924;52.122;9.952;2024-03-02T01:37:29;99378.53;;;8.43;100.00
13705;BME280;6924;52.122;9.952;2024-03-02T01:39:56;99381.97;;;8.32;100.00
13705;BME280;6924;52.122;9.952;2024-03-02T01:42:22;99381.13;;;8.31;100.00
13705;BME280;6924;52.122;9.952;2024-03-02T01:44:48;99381.16;;;8.22;100.00
13705;BME280;6924;52.122;9.952;2024-03-02T01:47:16;99376.47;;;8.26;100.00
13705;BME280;6924;52.122;9.952;2024-03-02T01:49:43;99374.53;;;8.27;100.00
13705;BME280;6924;52.122;9.952;2024-03-02T01:52:09;99375.16;;;8.24;100.00
13705;BME280;6924;52.122;9.952;2024-03-02T01:54:36;99378.16;;;8.27;100.00
13705;BME280;6924;52.122;9.952;2024-03-02T01:57:02;99376.19;;;8.37;100.00
13705;BME280;6924;52.122;9.952;2024-03-02T01:59:29;99375.50;;;8.40;100.00
13705;BME280;6924;52.122;9.952;2024-03-02T02:01:55;99370.88;;;8.35;100.00
13705;BME280;6924;52.122;9.952;2024-03-02T02:04:23;99367.41;;;8.38;100.00
13705;BME280;6924;52.122;9.952;2024-03-02T02:06:52;99363.94;;;8.41;100.00
13705;BME280;6924;52.122;9.952;2024-03-02T02:09:19;99362.13;;;8.45;100.00
13705;BME280;6924;52.122;9.952;2024-03-02T02:11:46;99361.09;;;8.33;100.00
13705;BME280;6924;52.122;9.952;2024-03-02T02:14:12;99356.28;;;8.33;100.00
13705;BME280;6924;52.122;9.952;2024-03-02T02:16:38;99356.28;;;8.33;100.00
13705;BME280;6924;52.122;9.952;2024-03-02T02:19:05;99357.28;;;8.28;100.00
13705;BME280;6924;52.122;9.952;2024-03-02T02:21:33;99349.00;;;8.32;100.00
13705;BME280;6924;52.122;9.952;2024-03-02T02:23:59;99350.31;;;8.26;100.00
13705;BME280;6924;52.122;9.952;2024-03-02T02:26:28;99345.66;;;8.21;100.00
13705;BME280;6924;52.122;9.952;2024-03-02T02:28:54;99349.00;;;8.23;100.00
13705;BME280;6924;52.122;9.952;2024-03-02T02:31:21;99350.97;;;8.23;100.00
13705;BME280;6924;52.122;9.952;2024-03-02T02:33:47;99341.22;;;8.20;100.00
13705;BME280;6924;52.122;9.952;2024-03-02T02:36:14;99344.53;;;8.22;100.00
13705;BME280;6924;52.122;9.952;2024-03-02T02:38:44;99348.31;;;8.18;100.00
13705;BME280;6924;52.122;9.952;2024-03-02T02:41:12;99340.53;;;8.23;100.00
13705;BME280;6924;52.122;9.952;2024-03-02T02:43:38;99352.81;;;8.27;100.00
13705;BME280;6924;52.122;9.952;2024-03-02T02:46:05;99345.84;;;8.25;100.00
13705;BME280;6924;52.122;9.952;2024-03-02T02:48:32;99344.16;;;8.15;100.00
13705;BME280;6924;52.122;9.952;2024-03-02T02:50:58;99345.31;;;8.14;100.00
13705;BME280;6924;52.122;9.952;2024-03-02T02:53:24;99344.53;;;8.22;100.00
13705;BME280;6924;52.122;9.952;2024-03-02T02:55:52;99342.53;;;8.23;100.00
13705;BME280;6924;52.122;9.952;2024-03-02T02:58:18;99339.88;;;8.26;100.00
13705;BME280;6924;52.122;9.952;2024-03-02T03:00:45;99324.63;;;8.27;100.00
13705;BME280;6924;52.122;9.952;2024-03-02T03:03:11;99325.78;;;8.26;100.00
13705;BME280;6924;52.122;9.952;2024-03-02T03:05:37;99332.59;;;8.25;100.00
13705;BME280;6924;52.122;9.952;2024-03-02T03:08:04;99325.94;;;8.21;100.00
13705;BME280;6924;52.122;9.952;2024-03-02T03:10:30;99321.50;;;8.20;100.00
13705;BME280;6924;52.122;9.952;2024-03-02T03:12:59;99327.13;;;8.20;100.00
13705;BME280;6924;52.122;9.952;2024-03-02T03:15:26;99315.66;;;8.17;100.00
13705;BME280;6924;52.122;9.952;2024-03-02T03:17:52;99329.06;;;7.94;100.00
13705;BME280;6924;52.122;9.952;2024-03-02T03:20:18;99324.28;;;8.03;100.00
13705;BME280;6924;52.122;9.952;2024-03-02T03:22:46;99319.28;;;8.08;100.00
13705;BME280;6924;52.122;9.952;2024-03-02T03:25:13;99323.78;;;8.10;100.00
13705;BME280;6924;52.122;9.952;2024-03-02T03:27:39;99321.59;;;8.06;100.00
13705;BME280;6924;52.122;9.952;2024-03-02T03:30:09;99330.41;;;8.05;100.00
13705;BME280;6924;52.122;9.952;2024-03-02T03:32:35;99326.41;;;8.06;100.00
13705;BME280;6924;52.122;9.952;2024-03-02T03:35:02;99324.44;;;8.06;100.00
13705;BME280;6924;52.122;9.952;2024-03-02T03:37:29;99324.28;;;8.03;100.00
13705;BME280;6924;52.122;9.952;2024-03-02T03:39:57;99317.16;;;8.05;100.00
13705;BME280;6924;52.122;9.952;2024-03-02T03:42:24;99324.91;;;8.00;100.00
13705;BME280;6924;52.122;9.952;2024-03-02T03:44:51;99312.97;;;7.85;100.00
13705;BME280;6924;52.122;9.952;2024-03-02T03:47:18;99313.59;;;7.82;100.00
13705;BME280;6924;52.122;9.952;2024-03-02T03:49:45;99311.28;;;7.84;100.00
13705;BME280;6924;52.122;9.952;2024-03-02T03:52:11;99321.38;;;7.77;100.00
13705;BME280;6924;52.122;9.952;2024-03-02T03:54:38;99330.97;;;7.76;100.00
13705;BME280;6924;52.122;9.952;2024-03-02T03:57:04;99315.09;;;7.80;100.00
13705;BME280;6924;52.122;9.952;2024-03-02T03:59:31;99316.78;;;7.81;100.00
13705;BME280;6924;52.122;9.952;2024-03-02T04:01:57;99319.41;;;7.77;100.00
13705;BME280;6924;52.122;9.952;2024-03-02T04:04:25;99317.25;;;7.74;100.00
13705;BME280;6924;52.122;9.952;2024-03-02T04:06:51;99311.63;;;7.74;100.00
13705;BME280;6924;52.122;9.952;2024-03-02T04:09:17;99309.44;;;7.71;100.00
13705;BME280;6924;52.122;9.952;2024-03-02T04:11:44;99324.19;;;7.68;100.00
13705;BME280;6924;52.122;9.952;2024-03-02T04:14:10;99319.06;;;7.70;100.00
13705;BME280;6924;52.122;9.952;2024-03-02T04:16:37;99319.66;;;7.50;100.00
13705;BME280;6924;52.122;9.952;2024-03-02T04:19:04;99311.38;;;7.53;100.00
13705;BME280;6924;52.122;9.952;2024-03-02T04:21:32;99313.78;;;7.37;100.00
13705;BME280;6924;52.122;9.952;2024-03-02T04:23:58;99314.16;;;7.44;100.00
13705;BME280;6924;52.122;9.952;2024-03-02T04:26:24;99315.81;;;7.45;100.00
13705;BME280;6924;52.122;9.952;2024-03-02T04:28:51;99309.00;;;7.38;100.00
13705;BME280;6924;52.122;9.952;2024-03-02T04:31:17;99320.94;;;7.43;100.00
13705;BME280;6924;52.122;9.952;2024-03-02T04:33:44;99324.88;;;7.42;100.00
13705;BME280;6924;52.122;9.952;2024-03-02T04:36:10;99326.72;;;7.47;100.00
13705;BME280;6924;52.122;9.952;2024-03-02T04:38:38;99327.59;;;7.48;100.00
13705;BME280;6924;52.122;9.952;2024-03-02T04:41:05;99323.78;;;7.52;100.00
13705;BME280;6924;52.122;9.952;2024-03-02T04:43:32;99325.59;;;7.48;100.00
13705;BME280;6924;52.122;9.952;2024-03-02T04:45:59;99329.97;;;7.32;100.00
13705;BME280;6924;52.122;9.952;2024-03-02T04:48:26;99328.13;;;7.27;100.00
13705;BME280;6924;52.122;9.952;2024-03-02T04:50:52;99326.56;;;7.43;100.00
13705;BME280;6924;52.122;9.952;2024-03-02T04:53:19;99328.56;;;7.52;100.00
13705;BME280;6924;52.122;9.952;2024-03-02T04:55:46;99322.47;;;7.50;100.00
13705;BME280;6924;52.122;9.952;2024-03-02T04:58:44;99323.91;;;7.47;100.00
13705;BME280;6924;52.122;9.952;2024-03-02T05:01:10;99327.06;;;7.45;100.00
13705;BME280;6924;52.122;9.952;2024-03-02T05:03:37;99323.91;;;7.47;100.00
13705;BME280;6924;52.122;9.952;2024-03-02T05:06:03;99329.00;;;7.36;100.00
13705;BME280;6924;52.122;9.952;2024-03-02T05:08:30;99322.19;;;7.29;100.00
13705;BME280;6924;52.122;9.952;2024-03-02T05:10:58;99333.63;;;7.32;100.00
13705;BME280;6924;52.122;9.952;2024-03-02T05:13:44;99335.28;;;7.33;100.00
13705;BME280;6924;52.122;9.952;2024-03-02T05:16:09;99331.66;;;7.33;100.00
13705;BME280;6924;52.122;9.952;2024-03-02T05:18:37;99330.47;;;7.34;100.00
13705;BME280;6924;52.122;9.952;2024-03-02T05:21:03;99323.53;;;7.31;100.00
13705;BME280;6924;52.122;9.952;2024-03-02T05:23:30;99327.00;;;7.28;100.00
13705;BME280;6924;52.122;9.952;2024-03-02T05:25:57;99329.44;;;7.21;100.00
13705;BME280;6924;52.122;9.952;2024-03-02T05:28:24;99327.91;;;7.15;100.00
13705;BME280;6924;52.122;9.952;2024-03-02T05:30:51;99330.84;;;7.10;100.00
13705;BME280;6924;52.122;9.952;2024-03-02T05:33:17;99321.72;;;7.04;100.00
13705;BME280;6924;52.122;9.952;2024-03-02T05:35:43;99319.53;;;7.01;100.00
13705;BME280;6924;52.122;9.952;2024-03-02T05:38:10;99325.63;;;6.94;100.00
13705;BME280;6924;52.122;9.952;2024-03-02T05:40:36;99326.28;;;6.91;100.00
13705;BME280;6924;52.122;9.952;2024-03-02T05:43:04;99321.63;;;6.87;100.00
13705;BME280;6924;52.122;9.952;2024-03-02T05:45:30;99333.63;;;6.78;100.00
13705;BME280;6924;52.122;9.952;2024-03-02T05:47:57;99328.97;;;6.74;100.00
13705;BME280;6924;52.122;9.952;2024-03-02T05:50:23;99328.44;;;6.72;100.00
13705;BME280;6924;52.122;9.952;2024-03-02T05:52:49;99321.13;;;6.62;100.00
13705;BME280;6924;52.122;9.952;2024-03-02T05:55:16;99321.22;;;6.57;100.00
13705;BME280;6924;52.122;9.952;2024-03-02T05:57:42;99325.94;;;6.48;100.00
13705;BME280;6924;52.122;9.952;2024-03-02T06:00:25;99332.41;;;6.48;100.00
13705;BME280;6924;52.122;9.952;2024-03-02T06:02:51;99340.94;;;6.43;100.00
13705;BME280;6924;52.122;9.952;2024-03-02T06:05:18;99342.22;;;6.37;100.00
13705;BME280;6924;52.122;9.952;2024-03-02T06:07:44;99342.28;;;6.46;100.00
13705;BME280;6924;52.122;9.952;2024-03-02T06:10:10;99342.28;;;6.46;100.00
13705;BME280;6924;52.122;9.952;2024-03-02T06:12:37;99350.72;;;6.46;100.00
13705;BME280;6924;52.122;9.952;2024-03-02T06:15:04;99353.09;;;6.52;100.00
13705;BME280;6924;52.122;9.952;2024-03-02T06:17:32;99351.13;;;6.53;100.00
13705;BME280;6924;52.122;9.952;2024-03-02T06:19:58;99347.38;;;6.57;100.00
13705;BME280;6924;52.122;9.952;2024-03-02T06:22:25;99352.34;;;6.60;100.00
13705;BME280;6924;52.122;9.952;2024-03-02T06:24:51;99348.69;;;6.60;100.00
13705;BME280;6924;52.122;9.952;2024-03-02T06:27:17;99352.13;;;6.57;100.00
13705;BME280;6924;52.122;9.952;2024-03-02T06:29:44;99352.78;;;6.54;100.00
13705;BME280;6924;52.122;9.952;2024-03-02T06:32:10;99351.50;;;6.60;100.00
13705;BME280;6924;52.122;9.952;2024-03-02T06:34:38;99355.34;;;6.64;100.00
13705;BME280;6924;52.122;9.952;2024-03-02T06:37:04;99355.34;;;6.64;100.00
13705;BME280;6924;52.122;9.952;2024-03-02T06:39:30;99355.53;;;6.68;100.00
13705;BME280;6924;52.122;9.952;2024-03-02T06:41:59;99363.66;;;6.69;100.00
13705;BME280;6924;52.122;9.952;2024-03-02T06:44:25;99366.47;;;6.69;100.00
13705;BME280;6924;52.122;9.952;2024-03-02T06:46:52;99359.88;;;6.74;100.00
13705;BME280;6924;52.122;9.952;2024-03-02T06:49:18;99367.03;;;6.80;100.00
13705;BME280;6924;52.122;9.952;2024-03-02T06:51:45;99368.56;;;6.86;100.00
13705;BME280;6924;52.122;9.952;2024-03-02T06:54:12;99356.47;;;6.86;100.00
13705;BME280;6924;52.122;9.952;2024-03-02T06:56:38;99368.31;;;6.96;100.00
13705;BME280;6924;52.122;9.952;2024-03-02T06:59:05;99361.72;;;7.01;100.00
13705;BME280;6924;52.122;9.952;2024-03-02T07:01:32;99368.56;;;7.09;100.00
13705;BME280;6924;52.122;9.952;2024-03-02T07:03:59;99368.41;;;7.14;100.00
13705;BME280;6924;52.122;9.952;2024-03-02T07:06:26;99362.63;;;7.10;100.00
13705;BME280;6924;52.122;9.952;2024-03-02T07:08:53;99357.72;;;7.24;100.00
13705;BME280;6924;52.122;9.952;2024-03-02T07:11:20;99367.00;;;7.25;100.00
13705;BME280;6924;52.122;9.952;2024-03-02T07:13:46;99364.19;;;7.25;100.00
13705;BME280;6924;52.122;9.952;2024-03-02T07:16:12;99368.22;;;7.33;100.00
13705;BME280;6924;52.122;9.952;2024-03-02T07:18:54;99370.88;;;7.38;100.00
13705;BME280;6924;52.122;9.952;2024-03-02T07:21:21;99374.41;;;7.43;100.00
13705;BME280;6924;52.122;9.952;2024-03-02T07:23:48;99373.22;;;7.44;100.00
13705;BME280;6924;52.122;9.952;2024-03-02T07:26:15;99383.38;;;7.54;100.00
13705;BME280;6924;52.122;9.952;2024-03-02T07:28:43;99370.19;;;7.63;100.00
13705;BME280;6924;52.122;9.952;2024-03-02T07:31:10;99391.69;;;7.59;100.00
13705;BME280;6924;52.122;9.952;2024-03-02T07:33:36;99388.59;;;7.70;100.00
13705;BME280;6924;52.122;9.952;2024-03-02T07:36:04;99392.22;;;7.70;100.00
13705;BME280;6924;52.122;9.952;2024-03-02T07:38:30;99388.25;;;7.71;100.00
13705;BME280;6924;52.122;9.952;2024-03-02T07:40:58;99393.56;;;7.73;100.00
13705;BME280;6924;52.122;9.952;2024-03-02T07:43:26;99394.94;;;7.84;100.00
13705;BME280;6924;52.122;9.952;2024-03-02T07:45:53;99398.06;;;7.82;100.00
13705;BME280;6924;52.122;9.952;2024-03-02T07:48:19;99397.44;;;7.85;100.00
13705;BME280;6924;52.122;9.952;2024-03-02T07:50:45;99402.75;;;7.96;100.00
13705;BME280;6924;52.122;9.952;2024-03-02T07:53:12;99404.59;;;8.00;100.00
13705;BME280;6924;52.122;9.952;2024-03-02T07:55:39;99408.91;;;8.06;100.00
13705;BME280;6924;52.122;9.952;2024-03-02T07:58:06;99416.25;;;8.16;100.00
13705;BME280;6924;52.122;9.952;2024-03-02T08:00:34;99419.41;;;8.23;100.00
13705;BME280;6924;52.122;9.952;2024-03-02T08:03:01;99422.06;;;8.28;100.00
13705;BME280;6924;52.122;9.952;2024-03-02T08:05:28;99412.13;;;8.40;100.00
13705;BME280;6924;52.122;9.952;2024-03-02T08:07:54;99418.84;;;8.53;100.00
13705;BME280;6924;52.122;9.952;2024-03-02T08:10:21;99418.19;;;8.56;100.00
13705;BME280;6924;52.122;9.952;2024-03-02T08:12:47;99423.31;;;8.54;100.00
13705;BME280;6924;52.122;9.952;2024-03-02T08:15:14;99421.50;;;8.58;100.00
13705;BME280;6924;52.122;9.952;2024-03-02T08:17:42;99420.81;;;8.52;100.00
13705;BME280;6924;52.122;9.952;2024-03-02T08:20:13;99426.47;;;8.52;100.00
13705;BME280;6924;52.122;9.952;2024-03-02T08:22:40;99428.28;;;8.48;100.00
13705;BME280;6924;52.122;9.952;2024-03-02T08:25:07;99433.94;;;8.57;100.00
13705;BME280;6924;52.122;9.952;2024-03-02T08:27:34;99432.81;;;8.66;100.00
13705;BME280;6924;52.122;9.952;2024-03-02T08:30:01;99434.47;;;8.76;100.00
13705;BME280;6924;52.122;9.952;2024-03-02T08:32:28;99432.78;;;8.84;100.00
13705;BME280;6924;52.122;9.952;2024-03-02T08:34:56;99436.28;;;8.89;100.00
13705;BME280;6924;52.122;9.952;2024-03-02T08:37:22;99436.13;;;8.95;100.00
13705;BME280;6924;52.122;9.952;2024-03-02T08:39:49;99429.81;;;9.06;100.00
13705;BME280;6924;52.122;9.952;2024-03-02T08:42:15;99429.47;;;9.25;100.00
13705;BME280;6924;52.122;9.952;2024-03-02T08:44:42;99422.16;;;9.42;100.00
13705;BME280;6924;52.122;9.952;2024-03-02T08:47:09;99427.56;;;9.64;99.41
13705;BME280;6924;52.122;9.952;2024-03-02T08:49:35;99429.84;;;9.80;96.95
13705;BME280;6924;52.122;9.952;2024-03-02T08:52:03;99425.81;;;9.89;96.49
13705;BME280;6924;52.122;9.952;2024-03-02T08:54:30;99426.59;;;9.99;95.64
13705;BME280;6924;52.122;9.952;2024-03-02T08:56:56;99435.00;;;10.16;95.80
13705;BME280;6924;52.122;9.952;2024-03-02T08:59:23;99431.47;;;10.28;93.96
13705;BME280;6924;52.122;9.952;2024-03-02T09:01:50;99437.59;;;10.39;92.34
13705;BME280;6924;52.122;9.952;2024-03-02T09:04:16;99431.53;;;10.49;91.67
13705;BME280;6924;52.122;9.952;2024-03-02T09:06:44;99437.53;;;10.47;90.14
13705;BME280;6924;52.122;9.952;2024-03-02T09:09:12;99438.03;;;10.49;90.29
13705;BME280;6924;52.122;9.952;2024-03-02T09:11:38;99431.69;;;10.52;90.64
13705;BME280;6924;52.122;9.952;2024-03-02T09:14:04;99434.66;;;10.56;89.69
13705;BME280;6924;52.122;9.952;2024-03-02T09:16:31;99429.41;;;10.67;89.16
13705;BME280;6924;52.122;9.952;2024-03-02T09:18:57;99425.28;;;10.64;89.10
13705;BME280;6924;52.122;9.952;2024-03-02T09:21:24;99442.88;;;10.70;88.41
13705;BME280;6924;52.122;9.952;2024-03-02T09:23:51;99427.50;;;10.59;88.10
13705;BME280;6924;52.122;9.952;2024-03-02T09:26:18;99426.09;;;10.65;87.91
13705;BME280;6924;52.122;9.952;2024-03-02T09:28:45;99429.22;;;10.72;88.06
13705;BME280;6924;52.122;9.952;2024-03-02T09:31:12;99427.22;;;10.72;88.48
13705;BME280;6924;52.122;9.952;2024-03-02T09:33:38;99431.03;;;10.77;88.42
13705;BME280;6924;52.122;9.952;2024-03-02T09:36:05;99432.38;;;10.70;88.07
13705;BME280;6924;52.122;9.952;2024-03-02T09:38:32;99431.56;;;10.70;86.43
13705;BME280;6924;52.122;9.952;2024-03-02T09:40:59;99432.66;;;10.78;86.50
13705;BME280;6924;52.122;9.952;2024-03-02T09:43:27;99435.38;;;10.74;86.34
13705;BME280;6924;52.122;9.952;2024-03-02T09:45:54;99433.97;;;10.80;86.89
13705;BME280;6924;52.122;9.952;2024-03-02T09:48:20;99436.56;;;10.94;86.98
13705;BME280;6924;52.122;9.952;2024-03-02T09:50:47;99436.97;;;11.05;86.51
13705;BME280;6924;52.122;9.952;2024-03-02T09:53:14;99438.75;;;11.09;84.09
13705;BME280;6924;52.122;9.952;2024-03-02T09:55:45;99439.91;;;11.29;85.80
13705;BME280;6924;52.122;9.952;2024-03-02T09:58:12;99444.03;;;11.32;83.17
13705;BME280;6924;52.122;9.952;2024-03-02T10:00:39;99441.81;;;11.37;83.09
13705;BME280;6924;52.122;9.952;2024-03-02T10:03:11;99441.91;;;11.29;82.18
13705;BME280;6924;52.122;9.952;2024-03-02T10:05:38;99442.56;;;11.47;82.60
13705;BME280;6924;52.122;9.952;2024-03-02T10:08:04;99440.47;;;11.56;81.82
13705;BME280;6924;52.122;9.952;2024-03-02T10:10:36;99443.75;;;11.46;79.99
13705;BME280;6924;52.122;9.952;2024-03-02T10:13:05;99447.91;;;11.27;81.10
13705;BME280;6924;52.122;9.952;2024-03-02T10:15:32;99453.13;;;11.37;81.77
13705;BME280;6924;52.122;9.952;2024-03-02T10:18:00;99455.94;;;11.58;80.67
13705;BME280;6924;52.122;9.952;2024-03-02T10:20:27;99446.56;;;11.79;80.26
13705;BME280;6924;52.122;9.952;2024-03-02T10:22:54;99452.78;;;11.93;79.32
13705;BME280;6924;52.122;9.952;2024-03-02T10:25:30;99454.88;;;11.96;78.74
13705;BME280;6924;52.122;9.952;2024-03-02T10:27:58;99450.03;;;11.97;78.10
13705;BME280;6924;52.122;9.952;2024-03-02T10:30:25;99458.75;;;11.79;78.75
13705;BME280;6924;52.122;9.952;2024-03-02T10:32:52;99452.59;;;11.77;78.46
13705;BME280;6924;52.122;9.952;2024-03-02T10:35:21;99456.34;;;11.82;79.22
13705;BME280;6924;52.122;9.952;2024-03-02T10:37:48;99451.50;;;11.70;78.68
13705;BME280;6924;52.122;9.952;2024-03-02T10:40:15;99449.47;;;11.70;78.45
13705;BME280;6924;52.122;9.952;2024-03-02T10:42:42;99441.84;;;11.71;78.90
13705;BME280;6924;52.122;9.952;2024-03-02T10:45:09;99452.09;;;11.75;76.50
13705;BME280;6924;52.122;9.952;2024-03-02T10:47:36;99446.69;;;11.83;77.43
13705;BME280;6924;52.122;9.952;2024-03-02T10:50:04;99450.09;;;11.76;77.39
13705;BME280;6924;52.122;9.952;2024-03-02T10:52:34;99453.81;;;11.89;77.12
13705;BME280;6924;52.122;9.952;2024-03-02T10:55:01;99453.84;;;12.01;76.91
13705;BME280;6924;52.122;9.952;2024-03-02T10:57:33;99450.06;;;12.09;76.68
13705;BME280;6924;52.122;9.952;2024-03-02T11:00:06;99450.53;;;11.99;75.15
13705;BME280;6924;52.122;9.952;2024-03-02T11:02:41;99444.63;;;11.92;74.65
13705;BME280;6924;52.122;9.952;2024-03-02T11:05:09;99449.22;;;11.96;74.60
13705;BME280;6924;52.122;9.952;2024-03-02T11:07:39;99445.31;;;12.01;75.20
13705;BME280;6924;52.122;9.952;2024-03-02T11:10:08;99444.53;;;12.13;76.59
13705;BME280;6924;52.122;9.952;2024-03-02T11:12:38;99439.91;;;12.20;75.70
13705;BME280;6924;52.122;9.952;2024-03-02T11:15:10;99438.66;;;12.30;76.42
13705;BME280;6924;52.122;9.952;2024-03-02T11:17:37;99445.50;;;12.42;74.19
13705;BME280;6924;52.122;9.952;2024-03-02T11:20:08;99443.47;;;12.30;73.32
13705;BME280;6924;52.122;9.952;2024-03-02T11:22:35;99450.22;;;12.37;73.54
13705;BME280;6924;52.122;9.952;2024-03-02T11:25:05;99450.91;;;12.47;74.46
13705;BME280;6924;52.122;9.952;2024-03-02T11:28:00;99451.03;;;12.38;75.87
13705;BME280;6924;52.122;9.952;2024-03-02T11:30:48;99442.75;;;12.45;74.37
13705;BME280;6924;52.122;9.952;2024-03-02T11:33:23;99443.38;;;12.51;75.32
13705;BME280;6924;52.122;9.952;2024-03-02T11:35:49;99440.50;;;12.63;74.01
13705;BME280;6924;52.122;9.952;2024-03-02T11:38:17;99444.66;;;12.66;71.83
13705;BME280;6924;52.122;9.952;2024-03-02T11:40:45;99445.00;;;12.64;71.83
13705;BME280;6924;52.122;9.952;2024-03-02T11:43:11;99452.19;;;12.74;72.56
13705;BME280;6924;52.122;9.952;2024-03-02T11:45:38;99451.25;;;12.70;73.37
13705;BME280;6924;52.122;9.952;2024-03-02T11:48:11;99450.19;;;12.62;72.54
13705;BME280;6924;52.122;9.952;2024-03-02T11:50:40;99451.50;;;12.65;71.74
13705;BME280;6924;52.122;9.952;2024-03-02T11:53:08;99448.06;;;12.71;73.67
13705;BME280;6924;52.122;9.952;2024-03-02T11:55:36;99445.91;;;12.80;73.37
13705;BME280;6924;52.122;9.952;2024-03-02T11:58:04;99442.50;;;12.75;71.90
13705;BME280;6924;52.122;9.952;2024-03-02T12:00:31;99437.53;;;12.84;72.97
13705;BME280;6924;52.122;9.952;2024-03-02T12:03:00;99441.69;;;12.74;73.78
13705;BME280;6924;52.122;9.952;2024-03-02T12:05:27;99444.50;;;12.87;72.96
13705;BME280;6924;52.122;9.952;2024-03-02T12:07:56;99436.72;;;12.84;73.06
13705;BME280;6924;52.122;9.952;2024-03-02T12:10:22;99434.56;;;12.93;73.10
13705;BME280;6924;52.122;9.952;2024-03-02T12:12:55;99433.97;;;12.87;72.73
13705;BME280;6924;52.122;9.952;2024-03-02T12:15:25;99441.78;;;12.78;72.53
13705;BME280;6924;52.122;9.952;2024-03-02T12:17:53;99438.59;;;12.79;71.47
13705;BME280;6924;52.122;9.952;2024-03-02T12:20:20;99438.59;;;12.79;72.16
13705;BME280;6924;52.122;9.952;2024-03-02T12:22:46;99429.69;;;12.93;72.54
13705;BME280;6924;52.122;9.952;2024-03-02T12:25:13;99424.38;;;12.92;72.41
13705;BME280;6924;52.122;9.952;2024-03-02T12:27:40;99418.00;;;12.95;70.41
13705;BME280;6924;52.122;9.952;2024-03-02T12:30:07;99421.63;;;13.08;71.40
13705;BME280;6924;52.122;9.952;2024-03-02T12:32:37;99413.59;;;13.10;72.71
13705;BME280;6924;52.122;9.952;2024-03-02T12:35:05;99409.66;;;13.14;70.98
13705;BME280;6924;52.122;9.952;2024-03-02T12:37:31;99414.59;;;13.30;70.01
13705;BME280;6924;52.122;9.952;2024-03-02T12:39:59;99416.81;;;13.24;70.21
13705;BME280;6924;52.122;9.952;2024-03-02T12:42:25;99417.25;;;13.10;69.67
13705;BME280;6924;52.122;9.952;2024-03-02T12:44:52;99411.56;;;13.10;69.36
13705;BME280;6924;52.122;9.952;2024-03-02T12:47:20;99416.50;;;13.13;70.19
13705;BME280;6924;52.122;9.952;2024-03-02T12:49:48;99410.34;;;13.11;68.49
13705;BME280;6924;52.122;9.952;2024-03-02T12:52:17;99408.56;;;13.19;68.21
13705;BME280;6924;52.122;9.952;2024-03-02T12:54:44;99407.72;;;13.31;68.70
13705;BME280;6924;52.122;9.952;2024-03-02T12:57:16;99406.00;;;13.42;67.95
13705;BME280;6924;52.122;9.952;2024-03-02T12:59:45;99414.16;;;13.43;68.14
13705;BME280;6924;52.122;9.952;2024-03-02T13:02:16;99408.75;;;13.38;67.51
13705;BME280;6924;52.122;9.952;2024-03-02T13:04:43;99399.84;;;13.40;68.12
13705;BME280;6924;52.122;9.952;2024-03-02T13:07:11;99393.09;;;13.44;66.19
13705;BME280;6924;52.122;9.952;2024-03-02T13:09:39;99406.47;;;13.44;66.40
13705;BME280;6924;52.122;9.952;2024-03-02T13:12:06;99391.50;;;13.31;63.89
13705;BME280;6924;52.122;9.952;2024-03-02T13:14:32;99402.16;;;13.34;64.66